sensor_id;sensor_type;location;lat;lon;timestamp;pressure;altitude;pressure_sealevel;temperature;humidity
46007;BME280;31738;50.188;8.524;2022-09-09T00:00:01;98251.38;;;17.15;94.16
46007;BME280;31738;50.188;8.524;2022-09-09T00:02:33;98241.31;;;17.16;94.17
46007;BME280;31738;50.188;8.524;2022-09-09T00:07:55;98230.34;;;17.12;94.35
46007;BME280;31738;50.188;8.524;2022-09-09T00:10:32;98223.31;;;17.11;94.53
46007;BME280;31738;50.188;8.524;2022-09-09T00:13:22;98228.47;;;17.04;94.52
46007;BME280;31738;50.188;8.524;2022-09-09T00:18:54;98227.66;;;17.03;94.59
46007;BME280;31738;50.188;8.524;2022-09-09T00:21:43;98226.59;;;16.96;94.41
46007;BME280;31738;50.188;8.524;2022-09-09T00:24:26;98230.88;;;16.97;94.77
46007;BME280;31738;50.188;8.524;2022-09-09T00:29:52;98224.06;;;16.91;94.97
46007;BME280;31738;50.188;8.524;2022-09-09T00:32:24;98229.63;;;16.94;95.06
46007;BME280;31738;50.188;8.524;2022-09-09T00:35:01;98231.09;;;16.92;95.02
46007;BME280;31738;50.188;8.524;2022-09-09T00:37:28;98225.66;;;16.92;95.21
46007;BME280;31738;50.188;8.524;2022-09-09T00:40:18;98224.91;;;16.83;95.00
46007;BME280;31738;50.188;8.524;2022-09-09T00:48:52;98222.41;;;16.69;95.31
46007;BME280;31738;50.188;8.524;2022-09-09T00:54:31;98226.09;;;16.65;95.60
46007;BME280;31738;50.188;8.524;2022-09-09T01:06:00;98243.03;;;16.45;95.38
46007;BME280;31738;50.188;8.524;2022-09-09T01:11:20;98242.56;;;16.43;94.89
46007;BME280;31738;50.188;8.524;2022-09-09T01:13:49;98242.28;;;16.44;95.39
46007;BME280;31738;50.188;8.524;2022-09-09T01:16:23;98240.94;;;16.42;95.46
46007;BME280;31738;50.188;8.524;2022-09-09T01:18:54;98238.25;;;16.42;95.10
46007;BME280;31738;50.188;8.524;2022-09-09T01:25:25;98238.81;;;16.18;95.06
46007;BME280;31738;50.188;8.524;2022-09-09T01:27:56;98239.56;;;16.19;95.43
46007;BME280;31738;50.188;8.524;2022-09-09T01:30:51;98248.19;;;16.21;95.62
46007;BME280;31738;50.188;8.524;2022-09-09T01:33:25;98245.63;;;16.16;95.48
46007;BME280;31738;50.188;8.524;2022-09-09T01:38:51;98239.28;;;16.12;95.79
46007;BME280;31738;50.188;8.524;2022-09-09T01:41:20;98233.06;;;16.11;96.16
46007;BME280;31738;50.188;8.524;2022-09-09T01:44:02;98233.53;;;16.13;96.09
46007;BME280;31738;50.188;8.524;2022-09-09T01:46:33;98230.03;;;16.13;96.11
46007;BME280;31738;50.188;8.524;2022-09-09T01:49:07;98231.66;;;16.14;96.02
46007;BME280;31738;50.188;8.524;2022-09-09T01:51:42;98227.66;;;16.11;95.53
46007;BME280;31738;50.188;8.524;2022-09-09T01:54:11;98236.41;;;16.08;95.87
46007;BME280;31738;50.188;8.524;2022-09-09T01:56:40;98235.16;;;16.06;96.17
46007;BME280;31738;50.188;8.524;2022-09-09T01:59:24;98236.13;;;16.01;96.07
46007;BME280;31738;50.188;8.524;2022-09-09T02:02:24;98239.13;;;16.00;95.76
46007;BME280;31738;50.188;8.524;2022-09-09T02:05:36;98240.25;;;15.90;95.95
46007;BME280;31738;50.188;8.524;2022-09-09T02:08:09;98239.78;;;15.97;96.28
46007;BME280;31738;50.188;8.524;2022-09-09T02:10:50;98239.63;;;16.02;96.33
46007;BME280;31738;50.188;8.524;2022-09-09T02:13:32;98238.97;;;16.05;96.19
46007;BME280;31738;50.188;8.524;2022-09-09T02:16:32;98233.72;;;16.00;96.02
46007;BME280;31738;50.188;8.524;2022-09-09T02:19:20;98237.06;;;15.97;96.31
46007;BME280;31738;50.188;8.524;2022-09-09T02:22:17;98233.25;;;15.98;96.70
46007;BME280;31738;50.188;8.524;2022-09-09T02:24:44;98235.63;;;15.99;96.57
46007;BME280;31738;50.188;8.524;2022-09-09T02:27:16;98231.50;;;16.02;96.83
46007;BME280;31738;50.188;8.524;2022-09-09T02:29:45;98234.66;;;16.04;97.18
46007;BME280;31738;50.188;8.524;2022-09-09T02:32:17;98247.88;;;16.05;97.11
46007;BME280;31738;50.188;8.524;2022-09-09T02:34:49;98241.50;;;16.10;97.04
46007;BME280;31738;50.188;8.524;2022-09-09T02:37:19;98240.84;;;16.13;96.96
46007;BME280;31738;50.188;8.524;2022-09-09T02:39:48;98246.75;;;16.15;97.70
46007;BME280;31738;50.188;8.524;2022-09-09T02:42:18;98232.25;;;16.19;97.41
46007;BME280;31738;50.188;8.524;2022-09-09T02:44:44;98237.84;;;16.23;97.53
46007;BME280;31738;50.188;8.524;2022-09-09T02:47:29;98235.78;;;16.20;97.34
46007;BME280;31738;50.188;8.524;2022-09-09T02:50:03;98230.03;;;16.21;97.33
46007;BME280;31738;50.188;8.524;2022-09-09T02:58:11;98230.34;;;16.20;97.33
46007;BME280;31738;50.188;8.524;2022-09-09T03:00:39;98230.84;;;16.22;97.63
46007;BME280;31738;50.188;8.524;2022-09-09T03:03:07;98226.19;;;16.22;97.44
46007;BME280;31738;50.188;8.524;2022-09-09T03:05:34;98222.72;;;16.22;97.68
46007;BME280;31738;50.188;8.524;2022-09-09T03:07:59;98220.78;;;16.22;97.85
46007;BME280;31738;50.188;8.524;2022-09-09T03:10:25;98218.41;;;16.21;97.85
46007;BME280;31738;50.188;8.524;2022-09-09T03:12:50;98211.91;;;16.22;97.79
46007;BME280;31738;50.188;8.524;2022-09-09T03:15:19;98206.50;;;16.22;97.94
46007;BME280;31738;50.188;8.524;2022-09-09T03:17:45;98217.31;;;16.22;98.03
46007;BME280;31738;50.188;8.524;2022-09-09T03:20:10;98217.59;;;16.20;97.54
46007;BME280;31738;50.188;8.524;2022-09-09T03:22:37;98210.94;;;16.18;97.74
46007;BME280;31738;50.188;8.524;2022-09-09T03:25:02;98215.22;;;16.19;97.45
46007;BME280;31738;50.188;8.524;2022-09-09T03:27:29;98217.94;;;16.19;97.69
46007;BME280;31738;50.188;8.524;2022-09-09T03:29:55;98216.81;;;16.20;97.60
46007;BME280;31738;50.188;8.524;2022-09-09T03:32:23;98223.66;;;16.17;97.63
46007;BME280;31738;50.188;8.524;2022-09-09T03:34:52;98222.41;;;16.15;97.48
46007;BME280;31738;50.188;8.524;2022-09-09T03:37:18;98229.41;;;16.16;97.53
46007;BME280;31738;50.188;8.524;2022-09-09T03:39:44;98233.53;;;16.13;97.62
46007;BME280;31738;50.188;8.524;2022-09-09T03:42:14;98237.06;;;16.14;97.39
46007;BME280;31738;50.188;8.524;2022-09-09T03:44:44;98243.88;;;16.11;97.49
46007;BME280;31738;50.188;8.524;2022-09-09T03:47:13;98237.69;;;16.11;97.76
46007;BME280;31738;50.188;8.524;2022-09-09T03:49:39;98239.13;;;16.08;97.52
46007;BME280;31738;50.188;8.524;2022-09-09T03:52:05;98233.72;;;16.08;97.80
46007;BME280;31738;50.188;8.524;2022-09-09T03:54:31;98234.50;;;16.09;97.77
46007;BME280;31738;50.188;8.524;2022-09-09T03:56:56;98236.56;;;16.12;97.92
46007;BME280;31738;50.188;8.524;2022-09-09T03:59:24;98243.13;;;16.11;98.05
46007;BME280;31738;50.188;8.524;2022-09-09T04:01:50;98237.06;;;16.14;98.09
46007;BME280;31738;50.188;8.524;2022-09-09T04:04:16;98227.81;;;16.15;98.11
46007;BME280;31738;50.188;8.524;2022-09-09T04:06:42;98235.28;;;16.18;98.03
46007;BME280;31738;50.188;8.524;2022-09-09T04:09:07;98221.44;;;16.19;98.30
46007;BME280;31738;50.188;8.524;2022-09-09T04:11:33;98211.41;;;16.20;98.45
46007;BME280;31738;50.188;8.524;2022-09-09T04:13:59;98217.31;;;16.22;98.14
46007;BME280;31738;50.188;8.524;2022-09-09T04:16:27;98214.28;;;16.23;98.18
46007;BME280;31738;50.188;8.524;2022-09-09T04:18:52;98214.59;;;16.22;97.93
46007;BME280;31738;50.188;8.524;2022-09-09T04:21:18;98210.78;;;16.23;98.08
46007;BME280;31738;50.188;8.524;2022-09-09T04:23:44;98208.06;;;16.23;98.18
46007;BME280;31738;50.188;8.524;2022-09-09T04:26:12;98211.91;;;16.22;98.00
46007;BME280;31738;50.188;8.524;2022-09-09T04:28:38;98204.88;;;16.21;97.91
46007;BME280;31738;50.188;8.524;2022-09-09T04:31:15;98212.50;;;16.19;97.86
46007;BME280;31738;50.188;8.524;2022-09-09T04:33:44;98212.22;;;16.12;98.04
46007;BME280;31738;50.188;8.524;2022-09-09T04:36:13;98203.78;;;16.13;97.65
46007;BME280;31738;50.188;8.524;2022-09-09T04:38:39;98199.94;;;16.14;97.98
46007;BME280;31738;50.188;8.524;2022-09-09T04:41:05;98199.19;;;16.14;97.89
46007;BME280;31738;50.188;8.524;2022-09-09T04:43:33;98208.06;;;16.14;98.04
46007;BME280;31738;50.188;8.524;2022-09-09T04:46:05;98202.97;;;16.13;98.11
46007;BME280;31738;50.188;8.524;2022-09-09T04:48:31;98211.09;;;16.13;98.16
46007;BME280;31738;50.188;8.524;2022-09-09T04:51:02;98207.63;;;16.12;98.04
46007;BME280;31738;50.188;8.524;2022-09-09T04:53:30;98217.63;;;16.12;98.27
46007;BME280;31738;50.188;8.524;2022-09-09T04:56:07;98227.66;;;16.11;97.80
46007;BME280;31738;50.188;8.524;2022-09-09T04:58:38;98229.25;;;16.12;98.29
46007;BME280;31738;50.188;8.524;2022-09-09T05:01:12;98222.41;;;16.15;98.33
46007;BME280;31738;50.188;8.524;2022-09-09T05:03:40;98220.81;;;16.14;98.65
46007;BME280;31738;50.188;8.524;2022-09-09T05:06:10;98222.88;;;16.17;98.58
46007;BME280;31738;50.188;8.524;2022-09-09T05:08:39;98213.97;;;16.16;98.74
46007;BME280;31738;50.188;8.524;2022-09-09T05:11:20;98218.44;;;16.12;98.08
46007;BME280;31738;50.188;8.524;2022-09-09T05:13:46;98222.88;;;16.17;98.45
46007;BME280;31738;50.188;8.524;2022-09-09T05:16:13;98227.16;;;16.18;98.71
46007;BME280;31738;50.188;8.524;2022-09-09T05:18:39;98226.03;;;16.19;98.64
46007;BME280;31738;50.188;8.524;2022-09-09T05:21:07;98239.56;;;16.19;98.76
46007;BME280;31738;50.188;8.524;2022-09-09T05:23:33;98238.81;;;16.18;98.82
46007;BME280;31738;50.188;8.524;2022-09-09T05:25:59;98243.41;;;16.18;99.10
46007;BME280;31738;50.188;8.524;2022-09-09T05:28:26;98250.56;;;16.22;98.87
46007;BME280;31738;50.188;8.524;2022-09-09T05:31:07;98245.78;;;16.19;98.68
46007;BME280;31738;50.188;8.524;2022-09-09T05:33:43;98252.94;;;16.24;99.07
46007;BME280;31738;50.188;8.524;2022-09-09T05:36:13;98258.50;;;16.27;99.23
46007;BME280;31738;50.188;8.524;2022-09-09T05:38:40;98257.06;;;16.30;99.16
46007;BME280;31738;50.188;8.524;2022-09-09T05:41:08;98258.69;;;16.31;99.04
46007;BME280;31738;50.188;8.524;2022-09-09T05:43:35;98266.31;;;16.29;99.22
46007;BME280;31738;50.188;8.524;2022-09-09T05:46:05;98267.91;;;16.30;98.81
46007;BME280;31738;50.188;8.524;2022-09-09T05:48:33;98269.50;;;16.31;99.14
46007;BME280;31738;50.188;8.524;2022-09-09T05:50:59;98278.06;;;16.33;99.23
46007;BME280;31738;50.188;8.524;2022-09-09T05:53:29;98275.38;;;16.33;99.00
46007;BME280;31738;50.188;8.524;2022-09-09T05:56:04;98277.31;;;16.32;99.36
46007;BME280;31738;50.188;8.524;2022-09-09T05:58:33;98275.38;;;16.33;99.03
46007;BME280;31738;50.188;8.524;2022-09-09T06:01:04;98272.03;;;16.36;99.34
46007;BME280;31738;50.188;8.524;2022-09-09T06:03:31;98277.44;;;16.36;98.97
46007;BME280;31738;50.188;8.524;2022-09-09T06:06:01;98283.81;;;16.40;98.82
46007;BME280;31738;50.188;8.524;2022-09-09T06:08:30;98283.34;;;16.38;99.05
46007;BME280;31738;50.188;8.524;2022-09-09T06:11:01;98278.72;;;16.38;99.01
46007;BME280;31738;50.188;8.524;2022-09-09T06:13:29;98286.03;;;16.38;98.95
46007;BME280;31738;50.188;8.524;2022-09-09T06:15:54;98278.41;;;16.40;99.03
46007;BME280;31738;50.188;8.524;2022-09-09T06:18:20;98277.75;;;16.43;99.16
46007;BME280;31738;50.188;8.524;2022-09-09T06:20:57;98275.53;;;16.45;98.68
46007;BME280;31738;50.188;8.524;2022-09-09T06:23:23;98279.84;;;16.46;99.29
46007;BME280;31738;50.188;8.524;2022-09-09T06:25:49;98283.00;;;16.48;99.00
46007;BME280;31738;50.188;8.524;2022-09-09T06:28:16;98281.09;;;16.48;99.01
46007;BME280;31738;50.188;8.524;2022-09-09T06:30:43;98286.53;;;16.48;99.14
46007;BME280;31738;50.188;8.524;2022-09-09T06:33:10;98283.50;;;16.50;98.87
46007;BME280;31738;50.188;8.524;2022-09-09T06:35:35;98277.91;;;16.55;99.41
46007;BME280;31738;50.188;8.524;2022-09-09T06:38:01;98279.31;;;16.61;98.85
46007;BME280;31738;50.188;8.524;2022-09-09T06:40:27;98283.16;;;16.60;99.04
46007;BME280;31738;50.188;8.524;2022-09-09T06:42:52;98281.56;;;16.59;98.88
46007;BME280;31738;50.188;8.524;2022-09-09T06:45:23;98287.78;;;16.59;99.16
46007;BME280;31738;50.188;8.524;2022-09-09T06:47:55;98285.22;;;16.63;99.28
46007;BME280;31738;50.188;8.524;2022-09-09T06:50:21;98288.72;;;16.63;98.78
46007;BME280;31738;50.188;8.524;2022-09-09T06:52:47;98285.66;;;16.65;98.91
46007;BME280;31738;50.188;8.524;2022-09-09T06:55:13;98289.34;;;16.60;99.03
46007;BME280;31738;50.188;8.524;2022-09-09T06:57:41;98295.56;;;16.61;99.04
46007;BME280;31738;50.188;8.524;2022-09-09T07:00:14;98292.88;;;16.61;99.46
46007;BME280;31738;50.188;8.524;2022-09-09T07:02:40;98293.34;;;16.63;99.09
46007;BME280;31738;50.188;8.524;2022-09-09T07:05:08;98279.16;;;16.66;99.73
46007;BME280;31738;50.188;8.524;2022-09-09T07:07:34;98289.78;;;16.71;99.35
46007;BME280;31738;50.188;8.524;2022-09-09T07:10:00;98289.34;;;16.69;99.57
46007;BME280;31738;50.188;8.524;2022-09-09T07:12:26;98290.44;;;16.68;99.36
46007;BME280;31738;50.188;8.524;2022-09-09T07:14:57;98289.78;;;16.71;99.69
46007;BME280;31738;50.188;8.524;2022-09-09T07:17:22;98292.97;;;16.73;99.47
46007;BME280;31738;50.188;8.524;2022-09-09T07:19:48;98289.63;;;16.76;99.45
46007;BME280;31738;50.188;8.524;2022-09-09T07:22:15;98296.78;;;16.80;99.72
46007;BME280;31738;50.188;8.524;2022-09-09T07:24:44;98293.09;;;16.85;99.42
46007;BME280;31738;50.188;8.524;2022-09-09T07:27:14;98296.75;;;16.89;99.46
46007;BME280;31738;50.188;8.524;2022-09-09T07:29:40;98301.53;;;16.92;99.21
46007;BME280;31738;50.188;8.524;2022-09-09T07:32:07;98306.31;;;16.95;99.20
46007;BME280;31738;50.188;8.524;2022-09-09T07:34:35;98300.41;;;16.93;98.93
46007;BME280;31738;50.188;8.524;2022-09-09T07:37:01;98303.91;;;16.93;99.19
46007;BME280;31738;50.188;8.524;2022-09-09T07:39:27;98309.47;;;16.97;98.69
46007;BME280;31738;50.188;8.524;2022-09-09T07:41:54;98304.53;;;16.99;98.53
46007;BME280;31738;50.188;8.524;2022-09-09T07:44:23;98315.19;;;17.04;98.88
46007;BME280;31738;50.188;8.524;2022-09-09T07:46:57;98311.34;;;17.05;98.79
46007;BME280;31738;50.188;8.524;2022-09-09T07:49:28;98311.31;;;17.14;98.63
46007;BME280;31738;50.188;8.524;2022-09-09T07:52:06;98306.50;;;17.19;97.97
46007;BME280;31738;50.188;8.524;2022-09-09T07:54:43;98317.94;;;17.25;97.92
46007;BME280;31738;50.188;8.524;2022-09-09T07:57:18;98321.09;;;17.35;97.70
46007;BME280;31738;50.188;8.524;2022-09-09T07:59:52;98331.41;;;17.42;97.12
46007;BME280;31738;50.188;8.524;2022-09-09T08:02:20;98331.09;;;17.43;97.03
46007;BME280;31738;50.188;8.524;2022-09-09T08:04:51;98340.22;;;17.47;96.73
46007;BME280;31738;50.188;8.524;2022-09-09T08:07:31;98339.22;;;17.43;96.72
46007;BME280;31738;50.188;8.524;2022-09-09T08:10:08;98347.88;;;17.45;96.84
46007;BME280;31738;50.188;8.524;2022-09-09T08:12:40;98345.63;;;17.47;96.96
46007;BME280;31738;50.188;8.524;2022-09-09T08:15:37;98344.03;;;17.46;96.74
46007;BME280;31738;50.188;8.524;2022-09-09T08:18:17;98346.56;;;17.51;96.57
46007;BME280;31738;50.188;8.524;2022-09-09T08:20:47;98350.84;;;17.52;96.51
46007;BME280;31738;50.188;8.524;2022-09-09T08:23:24;98347.47;;;17.55;96.20
46007;BME280;31738;50.188;8.524;2022-09-09T08:26:18;98349.25;;;17.60;96.54
46007;BME280;31738;50.188;8.524;2022-09-09T08:28:59;98342.63;;;17.69;95.81
46007;BME280;31738;50.188;8.524;2022-09-09T08:31:49;98346.59;;;17.72;95.25
46007;BME280;31738;50.188;8.524;2022-09-09T08:34:24;98352.81;;;17.72;95.31
46007;BME280;31738;50.188;8.524;2022-09-09T08:36:58;98347.84;;;17.74;95.18
46007;BME280;31738;50.188;8.524;2022-09-09T08:39:50;98351.03;;;17.76;94.78
46007;BME280;31738;50.188;8.524;2022-09-09T08:42:30;98351.22;;;17.71;94.64
46007;BME280;31738;50.188;8.524;2022-09-09T08:45:50;98354.13;;;17.66;95.06
46007;BME280;31738;50.188;8.524;2022-09-09T08:51:15;98345.41;;;17.61;96.02
46007;BME280;31738;50.188;8.524;2022-09-09T08:53:54;98331.03;;;17.60;95.95
46007;BME280;31738;50.188;8.524;2022-09-09T08:56:28;98332.00;;;17.56;96.39
46007;BME280;31738;50.188;8.524;2022-09-09T08:59:02;98335.72;;;17.51;96.31
46007;BME280;31738;50.188;8.524;2022-09-09T09:02:03;98322.97;;;17.43;96.59
46007;BME280;31738;50.188;8.524;2022-09-09T09:10:40;98336.59;;;17.26;97.66
46007;BME280;31738;50.188;8.524;2022-09-09T09:13:44;98341.75;;;17.19;97.87
46007;BME280;31738;50.188;8.524;2022-09-09T09:16:34;98324.06;;;17.13;98.32
46007;BME280;31738;50.188;8.524;2022-09-09T09:19:10;98323.25;;;17.21;98.59
46007;BME280;31738;50.188;8.524;2022-09-09T09:22:51;98332.03;;;17.18;98.67
46007;BME280;31738;50.188;8.524;2022-09-09T09:25:41;98326.41;;;17.23;99.56
46007;BME280;31738;50.188;8.524;2022-09-09T09:28:24;98328.63;;;17.30;99.30
46007;BME280;31738;50.188;8.524;2022-09-09T09:36:13;98322.00;;;17.48;99.76
46007;BME280;31738;50.188;8.524;2022-09-09T09:38:55;98325.19;;;17.50;99.38
46007;BME280;31738;50.188;8.524;2022-09-09T09:41:29;98324.22;;;17.54;99.97
46007;BME280;31738;50.188;8.524;2022-09-09T09:43:55;98323.56;;;17.57;99.73
46007;BME280;31738;50.188;8.524;2022-09-09T09:46:24;98319.06;;;17.61;99.91
46007;BME280;31738;50.188;8.524;2022-09-09T09:49:03;98320.66;;;17.62;99.61
46007;BME280;31738;50.188;8.524;2022-09-09T09:51:32;98315.38;;;17.66;100.00
46007;BME280;31738;50.188;8.524;2022-09-09T09:56:35;98304.94;;;17.76;99.87
46007;BME280;31738;50.188;8.524;2022-09-09T09:59:03;98310.13;;;17.81;99.95
46007;BME280;31738;50.188;8.524;2022-09-09T10:01:34;98313.78;;;17.85;99.93
46007;BME280;31738;50.188;8.524;2022-09-09T10:04:19;98301.34;;;17.84;99.41
46007;BME280;31738;50.188;8.524;2022-09-09T10:06:47;98294.13;;;17.88;99.81
46007;BME280;31738;50.188;8.524;2022-09-09T10:09:24;98302.28;;;17.88;100.00
46007;BME280;31738;50.188;8.524;2022-09-09T10:28:57;98295.47;;;18.35;99.17
46007;BME280;31738;50.188;8.524;2022-09-09T10:40:23;98278.38;;;18.67;99.18
46007;BME280;31738;50.188;8.524;2022-09-09T10:42:54;98276.69;;;18.75;98.66
46007;BME280;31738;50.188;8.524;2022-09-09T10:45:32;98284.06;;;18.75;98.26
46007;BME280;31738;50.188;8.524;2022-09-09T10:51:21;98293.31;;;18.61;96.88
46007;BME280;31738;50.188;8.524;2022-09-09T10:56:32;98290.75;;;18.77;97.56
46007;BME280;31738;50.188;8.524;2022-09-09T10:59:05;98290.78;;;19.01;96.62
46007;BME280;31738;50.188;8.524;2022-09-09T11:04:35;98292.06;;;19.40;95.66
46007;BME280;31738;50.188;8.524;2022-09-09T11:07:08;98296.38;;;19.53;94.81
46007;BME280;31738;50.188;8.524;2022-09-09T11:09:43;98295.88;;;19.63;94.47
46007;BME280;31738;50.188;8.524;2022-09-09T11:12:15;98301.97;;;19.72;93.68
46007;BME280;31738;50.188;8.524;2022-09-09T11:14:47;98294.94;;;19.83;92.74
46007;BME280;31738;50.188;8.524;2022-09-09T11:17:18;98305.94;;;19.86;91.51
46007;BME280;31738;50.188;8.524;2022-09-09T11:19:46;98312.38;;;19.94;91.77
46007;BME280;31738;50.188;8.524;2022-09-09T11:24:45;98326.28;;;19.65;89.96
46007;BME280;31738;50.188;8.524;2022-09-09T11:27:20;98321.06;;;19.48;90.19
46007;BME280;31738;50.188;8.524;2022-09-09T11:30:18;98318.03;;;19.37;90.42
46007;BME280;31738;50.188;8.524;2022-09-09T11:32:59;98313.13;;;19.55;90.60
46007;BME280;31738;50.188;8.524;2022-09-09T11:38:41;98324.31;;;20.29;86.15
46007;BME280;31738;50.188;8.524;2022-09-09T11:41:09;98338.19;;;20.52;85.33
46007;BME280;31738;50.188;8.524;2022-09-09T11:46:06;98353.94;;;20.58;84.88
46007;BME280;31738;50.188;8.524;2022-09-09T11:48:41;98356.97;;;20.41;83.75
46007;BME280;31738;50.188;8.524;2022-09-09T11:53:53;98364.53;;;20.20;82.18
46007;BME280;31738;50.188;8.524;2022-09-09T11:58:59;98373.59;;;20.12;82.88
46007;BME280;31738;50.188;8.524;2022-09-09T12:06:55;98385.97;;;19.97;81.57
46007;BME280;31738;50.188;8.524;2022-09-09T12:09:31;98377.94;;;20.01;81.68
46007;BME280;31738;50.188;8.524;2022-09-09T12:17:41;98373.84;;;19.95;82.25
46007;BME280;31738;50.188;8.524;2022-09-09T12:28:52;98394.53;;;19.72;81.42
46007;BME280;31738;50.188;8.524;2022-09-09T12:31:27;98384.78;;;19.71;81.08
46007;BME280;31738;50.188;8.524;2022-09-09T12:34:08;98388.53;;;19.66;80.87
46007;BME280;31738;50.188;8.524;2022-09-09T12:36:35;98381.81;;;19.64;81.19
46007;BME280;31738;50.188;8.524;2022-09-09T12:39:10;98383.66;;;19.60;81.61
46007;BME280;31738;50.188;8.524;2022-09-09T12:41:40;98380.59;;;19.61;82.03
46007;BME280;31738;50.188;8.524;2022-09-09T12:44:09;98375.25;;;19.65;82.21
46007;BME280;31738;50.188;8.524;2022-09-09T12:46:41;98378.75;;;19.65;81.40
46007;BME280;31738;50.188;8.524;2022-09-09T12:49:34;98371.97;;;19.59;81.35
46007;BME280;31738;50.188;8.524;2022-09-09T12:52:03;98378.88;;;19.57;81.53
46007;BME280;31738;50.188;8.524;2022-09-09T12:54:32;98380.25;;;19.51;81.01
46007;BME280;31738;50.188;8.524;2022-09-09T12:56:58;98380.94;;;19.48;81.37
46007;BME280;31738;50.188;8.524;2022-09-09T12:59:36;98374.69;;;19.47;81.07
46007;BME280;31738;50.188;8.524;2022-09-09T13:02:21;98375.13;;;19.61;80.07
46007;BME280;31738;50.188;8.524;2022-09-09T13:04:53;98378.88;;;19.81;78.92
46007;BME280;31738;50.188;8.524;2022-09-09T13:07:24;98384.06;;;19.98;78.09
46007;BME280;31738;50.188;8.524;2022-09-09T13:10:04;98383.59;;;20.08;77.79
46007;BME280;31738;50.188;8.524;2022-09-09T13:12:35;98390.88;;;20.16;78.17
46007;BME280;31738;50.188;8.524;2022-09-09T13:15:32;98390.19;;;20.19;78.82
46007;BME280;31738;50.188;8.524;2022-09-09T13:18:11;98384.16;;;20.25;78.91
46007;BME280;31738;50.188;8.524;2022-09-09T13:20:38;98384.25;;;20.29;78.46
46007;BME280;31738;50.188;8.524;2022-09-09T13:23:41;98379.69;;;20.33;78.34
46007;BME280;31738;50.188;8.524;2022-09-09T13:26:32;98385.94;;;20.33;78.20
46007;BME280;31738;50.188;8.524;2022-09-09T13:29:18;98370.59;;;20.41;78.76
46007;BME280;31738;50.188;8.524;2022-09-09T13:34:58;98363.16;;;20.26;78.73
46007;BME280;31738;50.188;8.524;2022-09-09T13:37:40;98363.19;;;20.14;78.04
46007;BME280;31738;50.188;8.524;2022-09-09T13:40:23;98354.34;;;20.17;78.27
46007;BME280;31738;50.188;8.524;2022-09-09T13:42:55;98355.44;;;20.16;79.01
46007;BME280;31738;50.188;8.524;2022-09-09T13:45:32;98356.59;;;20.15;78.65
46007;BME280;31738;50.188;8.524;2022-09-09T13:48:11;98358.28;;;20.19;79.02
46007;BME280;31738;50.188;8.524;2022-09-09T13:51:28;98359.31;;;20.15;78.49
46007;BME280;31738;50.188;8.524;2022-09-09T13:54:27;98359.97;;;20.24;77.78
46007;BME280;31738;50.188;8.524;2022-09-09T13:56:52;98372.66;;;20.32;77.98
46007;BME280;31738;50.188;8.524;2022-09-09T13:59:20;98369.50;;;20.30;77.26
46007;BME280;31738;50.188;8.524;2022-09-09T14:01:46;98366.56;;;20.23;77.73
46007;BME280;31738;50.188;8.524;2022-09-09T14:04:12;98369.53;;;20.18;78.50
46007;BME280;31738;50.188;8.524;2022-09-09T14:06:39;98376.91;;;20.17;78.41
46007;BME280;31738;50.188;8.524;2022-09-09T14:09:06;98377.25;;;20.16;77.73
46007;BME280;31738;50.188;8.524;2022-09-09T14:11:32;98382.13;;;20.10;77.47
46007;BME280;31738;50.188;8.524;2022-09-09T14:13:57;98392.91;;;20.07;77.46
46007;BME280;31738;50.188;8.524;2022-09-09T14:16:23;98389.97;;;20.00;77.24
46007;BME280;31738;50.188;8.524;2022-09-09T14:18:48;98399.94;;;19.96;76.78
46007;BME280;31738;50.188;8.524;2022-09-09T14:21:14;98407.22;;;19.92;77.33
46007;BME280;31738;50.188;8.524;2022-09-09T14:23:41;98410.97;;;19.87;76.81
46007;BME280;31738;50.188;8.524;2022-09-09T14:26:07;98410.41;;;19.82;76.92
46007;BME280;31738;50.188;8.524;2022-09-09T14:28:33;98412.56;;;19.76;76.56
46007;BME280;31738;50.188;8.524;2022-09-09T14:31:00;98416.75;;;19.74;76.25
46007;BME280;31738;50.188;8.524;2022-09-09T14:33:27;98415.97;;;19.73;76.28
46007;BME280;31738;50.188;8.524;2022-09-09T14:35:58;98431.81;;;19.71;75.29
46007;BME280;31738;50.188;8.524;2022-09-09T14:38:26;98420.38;;;19.66;75.47
46007;BME280;31738;50.188;8.524;2022-09-09T14:40:53;98415.50;;;19.59;75.42
46007;BME280;31738;50.188;8.524;2022-09-09T14:43:19;98406.78;;;19.54;76.47
46007;BME280;31738;50.188;8.524;2022-09-09T14:45:45;98399.28;;;19.51;77.25
46007;BME280;31738;50.188;8.524;2022-09-09T14:48:12;98399.75;;;19.53;77.87
46007;BME280;31738;50.188;8.524;2022-09-09T14:50:38;98385.91;;;19.58;78.94
46007;BME280;31738;50.188;8.524;2022-09-09T14:53:05;98381.38;;;19.62;79.01
46007;BME280;31738;50.188;8.524;2022-09-09T14:55:30;98380.03;;;19.68;79.27
46007;BME280;31738;50.188;8.524;2022-09-09T14:57:56;98370.94;;;19.76;79.36
46007;BME280;31738;50.188;8.524;2022-09-09T15:00:22;98373.41;;;19.81;79.44
46007;BME280;31738;50.188;8.524;2022-09-09T15:02:47;98372.72;;;19.84;78.68
46007;BME280;31738;50.188;8.524;2022-09-09T15:05:13;98372.03;;;19.87;77.97
46007;BME280;31738;50.188;8.524;2022-09-09T15:07:40;98379.78;;;19.85;77.80
46007;BME280;31738;50.188;8.524;2022-09-09T15:10:05;98371.84;;;19.80;77.96
46007;BME280;31738;50.188;8.524;2022-09-09T15:12:31;98374.44;;;19.76;77.79
46007;BME280;31738;50.188;8.524;2022-09-09T15:14:58;98385.44;;;19.80;77.82
46007;BME280;31738;50.188;8.524;2022-09-09T15:17:23;98372.53;;;19.77;77.89
46007;BME280;31738;50.188;8.524;2022-09-09T15:19:51;98373.41;;;19.81;77.66
46007;BME280;31738;50.188;8.524;2022-09-09T15:22:16;98373.53;;;19.84;77.65
46007;BME280;31738;50.188;8.524;2022-09-09T15:24:41;98388.38;;;19.87;77.99
46007;BME280;31738;50.188;8.524;2022-09-09T15:27:07;98388.03;;;19.88;77.98
46007;BME280;31738;50.188;8.524;2022-09-09T15:29:32;98387.69;;;19.90;78.13
46007;BME280;31738;50.188;8.524;2022-09-09T15:31:58;98397.47;;;19.91;78.53
46007;BME280;31738;50.188;8.524;2022-09-09T15:34:23;98406.31;;;19.88;77.99
46007;BME280;31738;50.188;8.524;2022-09-09T15:36:49;98401.56;;;19.85;77.39